sensor_id;sensor_type;location;lat;lon;timestamp;P1;durP1;ratioP1;P2;durP2;ratioP2
20695;SDS011;10507;52.754;13.040;2023-07-31T00:01:38;5.65;;;2.00;;
20695;SDS011;10507;52.754;13.040;2023-07-31T00:04:06;5.25;;;1.77;;
20695;SDS011;10507;52.754;13.040;2023-07-31T00:06:34;4.47;;;1.90;;
20695;SDS011;10507;52.754;13.040;2023-07-31T00:09:04;5.68;;;2.05;;
20695;SDS011;10507;52.754;13.040;2023-07-31T00:11:32;5.10;;;1.63;;
20695;SDS011;10507;52.754;13.040;2023-07-31T00:14:00;6.65;;;1.77;;
20695;SDS011;10507;52.754;13.040;2023-07-31T00:16:28;6.32;;;2.08;;
20695;SDS011;10507;52.754;13.040;2023-07-31T00:18:57;6.57;;;1.88;;
20695;SDS011;10507;52.754;13.040;2023-07-31T00:21:25;3.80;;;2.00;;
20695;SDS011;10507;52.754;13.040;2023-07-31T00:23:53;5.38;;;1.67;;
20695;SDS011;10507;52.754;13.040;2023-07-31T00:26:22;3.70;;;1.60;;
20695;SDS011;10507;52.754;13.040;2023-07-31T00:28:50;3.33;;;1.60;;
20695;SDS011;10507;52.754;13.040;2023-07-31T00:31:18;4.00;;;1.88;;
20695;SDS011;10507;52.754;13.040;2023-07-31T00:33:46;5.50;;;1.83;;
20695;SDS011;10507;52.754;13.040;2023-07-31T00:36:14;4.93;;;1.75;;
20695;SDS011;10507;52.754;13.040;2023-07-31T00:38:42;4.45;;;1.90;;
20695;SDS011;10507;52.754;13.040;2023-07-31T00:41:10;4.55;;;1.35;;
20695;SDS011;10507;52.754;13.040;2023-07-31T00:43:39;4.45;;;1.83;;
20695;SDS011;10507;52.754;13.040;2023-07-31T00:46:07;5.93;;;1.88;;
20695;SDS011;10507;52.754;13.040;2023-07-31T00:48:36;3.05;;;1.60;;
20695;SDS011;10507;52.754;13.040;2023-07-31T00:51:07;6.40;;;2.00;;
20695;SDS011;10507;52.754;13.040;2023-07-31T00:53:35;4.60;;;2.17;;
20695;SDS011;10507;52.754;13.040;2023-07-31T00:56:03;3.10;;;1.70;;
20695;SDS011;10507;52.754;13.040;2023-07-31T00:58:34;5.82;;;2.30;;
20695;SDS011;10507;52.754;13.040;2023-07-31T01:01:03;4.35;;;1.98;;
20695;SDS011;10507;52.754;13.040;2023-07-31T01:03:31;5.88;;;2.03;;
20695;SDS011;10507;52.754;13.040;2023-07-31T01:06:04;3.53;;;1.98;;
20695;SDS011;10507;52.754;13.040;2023-07-31T01:08:42;3.80;;;1.85;;
20695;SDS011;10507;52.754;13.040;2023-07-31T01:11:19;3.13;;;1.38;;
20695;SDS011;10507;52.754;13.040;2023-07-31T01:13:52;5.00;;;1.33;;
20695;SDS011;10507;52.754;13.040;2023-07-31T01:16:22;5.78;;;2.13;;
20695;SDS011;10507;52.754;13.040;2023-07-31T01:18:51;3.80;;;1.70;;
20695;SDS011;10507;52.754;13.040;2023-07-31T01:21:22;3.80;;;1.40;;
20695;SDS011;10507;52.754;13.040;2023-07-31T01:24:12;2.40;;;1.60;;
20695;SDS011;10507;52.754;13.040;2023-07-31T01:26:54;2.20;;;1.40;;
20695;SDS011;10507;52.754;13.040;2023-07-31T01:29:28;4.18;;;1.35;;
20695;SDS011;10507;52.754;13.040;2023-07-31T01:32:05;3.08;;;1.38;;
20695;SDS011;10507;52.754;13.040;2023-07-31T01:34:35;2.80;;;1.48;;
20695;SDS011;10507;52.754;13.040;2023-07-31T01:37:04;3.42;;;1.50;;
20695;SDS011;10507;52.754;13.040;2023-07-31T01:39:33;6.03;;;1.42;;
20695;SDS011;10507;52.754;13.040;2023-07-31T01:42:02;4.00;;;1.70;;
20695;SDS011;10507;52.754;13.040;2023-07-31T01:44:31;2.42;;;1.33;;
20695;SDS011;10507;52.754;13.040;2023-07-31T01:46:59;3.03;;;1.70;;
20695;SDS011;10507;52.754;13.040;2023-07-31T01:49:27;5.35;;;1.88;;
20695;SDS011;10507;52.754;13.040;2023-07-31T01:51:55;3.17;;;1.58;;
20695;SDS011;10507;52.754;13.040;2023-07-31T01:54:23;3.17;;;1.70;;
20695;SDS011;10507;52.754;13.040;2023-07-31T01:56:51;4.43;;;2.10;;
20695;SDS011;10507;52.754;13.040;2023-07-31T01:59:21;4.05;;;2.05;;
20695;SDS011;10507;52.754;13.040;2023-07-31T02:01:49;5.22;;;2.28;;
20695;SDS011;10507;52.754;13.040;2023-07-31T02:04:20;7.43;;;2.25;;
20695;SDS011;10507;52.754;13.040;2023-07-31T02:06:50;4.20;;;2.45;;
20695;SDS011;10507;52.754;13.040;2023-07-31T02:09:18;3.30;;;1.65;;
20695;SDS011;10507;52.754;13.040;2023-07-31T02:11:46;7.50;;;2.67;;
20695;SDS011;10507;52.754;13.040;2023-07-31T02:14:14;10.30;;;2.70;;
20695;SDS011;10507;52.754;13.040;2023-07-31T02:16:43;6.22;;;2.90;;
20695;SDS011;10507;52.754;13.040;2023-07-31T02:19:12;7.43;;;2.88;;
20695;SDS011;10507;52.754;13.040;2023-07-31T02:21:40;5.03;;;2.90;;
20695;SDS011;10507;52.754;13.040;2023-07-31T02:24:08;6.72;;;2.95;;
20695;SDS011;10507;52.754;13.040;2023-07-31T02:26:36;5.35;;;3.17;;
20695;SDS011;10507;52.754;13.040;2023-07-31T02:29:04;6.75;;;3.20;;
20695;SDS011;10507;52.754;13.040;2023-07-31T02:31:32;7.78;;;3.63;;
20695;SDS011;10507;52.754;13.040;2023-07-31T02:34:02;6.03;;;2.75;;
20695;SDS011;10507;52.754;13.040;2023-07-31T02:36:33;4.68;;;3.10;;
20695;SDS011;10507;52.754;13.040;2023-07-31T02:39:01;7.10;;;3.47;;
20695;SDS011;10507;52.754;13.040;2023-07-31T02:41:30;7.82;;;3.03;;
20695;SDS011;10507;52.754;13.040;2023-07-31T02:43:58;7.30;;;3.60;;
20695;SDS011;10507;52.754;13.040;2023-07-31T02:46:26;9.07;;;3.35;;
20695;SDS011;10507;52.754;13.040;2023-07-31T02:48:54;5.70;;;3.25;;
20695;SDS011;10507;52.754;13.040;2023-07-31T02:51:23;8.75;;;3.72;;
20695;SDS011;10507;52.754;13.040;2023-07-31T02:53:51;6.53;;;3.00;;
20695;SDS011;10507;52.754;13.040;2023-07-31T02:56:19;8.13;;;3.15;;
20695;SDS011;10507;52.754;13.040;2023-07-31T02:58:47;7.07;;;2.58;;
20695;SDS011;10507;52.754;13.040;2023-07-31T03:01:16;7.07;;;2.65;;
20695;SDS011;10507;52.754;13.040;2023-07-31T03:03:44;5.68;;;3.03;;
20695;SDS011;10507;52.754;13.040;2023-07-31T03:06:12;10.85;;;3.85;;
20695;SDS011;10507;52.754;13.040;2023-07-31T03:08:41;5.85;;;3.10;;
20695;SDS011;10507;52.754;13.040;2023-07-31T03:11:10;7.22;;;3.35;;
20695;SDS011;10507;52.754;13.040;2023-07-31T03:13:41;5.35;;;2.90;;
20695;SDS011;10507;52.754;13.040;2023-07-31T03:16:10;5.78;;;2.97;;
20695;SDS011;10507;52.754;13.040;2023-07-31T03:18:39;7.50;;;3.28;;
20695;SDS011;10507;52.754;13.040;2023-07-31T03:21:07;6.72;;;3.08;;
20695;SDS011;10507;52.754;13.040;2023-07-31T03:23:35;5.75;;;3.03;;
20695;SDS011;10507;52.754;13.040;2023-07-31T03:26:05;9.63;;;3.40;;
20695;SDS011;10507;52.754;13.040;2023-07-31T03:28:34;5.90;;;2.70;;
20695;SDS011;10507;52.754;13.040;2023-07-31T03:31:03;7.63;;;3.10;;
20695;SDS011;10507;52.754;13.040;2023-07-31T03:33:52;7.00;;;3.35;;
20695;SDS011;10507;52.754;13.040;2023-07-31T03:36:20;5.10;;;2.90;;
20695;SDS011;10507;52.754;13.040;2023-07-31T03:38:48;10.70;;;3.53;;
20695;SDS011;10507;52.754;13.040;2023-07-31T03:41:20;9.60;;;3.78;;
20695;SDS011;10507;52.754;13.040;2023-07-31T03:43:49;7.15;;;3.45;;
20695;SDS011;10507;52.754;13.040;2023-07-31T03:46:18;6.88;;;3.63;;
20695;SDS011;10507;52.754;13.040;2023-07-31T03:48:47;8.70;;;4.00;;
20695;SDS011;10507;52.754;13.040;2023-07-31T03:51:15;5.88;;;3.33;;
20695;SDS011;10507;52.754;13.040;2023-07-31T03:53:46;7.10;;;3.42;;
20695;SDS011;10507;52.754;13.040;2023-07-31T03:56:14;5.38;;;3.83;;
20695;SDS011;10507;52.754;13.040;2023-07-31T03:58:44;7.05;;;3.08;;
20695;SDS011;10507;52.754;13.040;2023-07-31T04:01:12;5.55;;;3.25;;
20695;SDS011;10507;52.754;13.040;2023-07-31T04:03:41;5.25;;;3.10;;
20695;SDS011;10507;52.754;13.040;2023-07-31T04:06:09;6.88;;;3.13;;
20695;SDS011;10507;52.754;13.040;2023-07-31T04:08:37;9.02;;;3.67;;
20695;SDS011;10507;52.754;13.040;2023-07-31T04:11:05;8.70;;;3.55;;
20695;SDS011;10507;52.754;13.040;2023-07-31T04:13:33;4.38;;;3.08;;
20695;SDS011;10507;52.754;13.040;2023-07-31T04:16:03;8.38;;;3.50;;
20695;SDS011;10507;52.754;13.040;2023-07-31T04:18:31;9.45;;;3.38;;
20695;SDS011;10507;52.754;13.040;2023-07-31T04:21:00;6.28;;;2.90;;
20695;SDS011;10507;52.754;13.040;2023-07-31T04:23:30;8.90;;;3.60;;
20695;SDS011;10507;52.754;13.040;2023-07-31T04:25:58;5.97;;;3.55;;
20695;SDS011;10507;52.754;13.040;2023-07-31T04:28:26;10.63;;;3.88;;
20695;SDS011;10507;52.754;13.040;2023-07-31T04:30:54;7.32;;;3.47;;
20695;SDS011;10507;52.754;13.040;2023-07-31T04:33:23;7.18;;;3.47;;
20695;SDS011;10507;52.754;13.040;2023-07-31T04:35:51;12.20;;;3.90;;
20695;SDS011;10507;52.754;13.040;2023-07-31T04:38:24;7.13;;;3.50;;
20695;SDS011;10507;52.754;13.040;2023-07-31T04:40:56;7.63;;;3.83;;
20695;SDS011;10507;52.754;13.040;2023-07-31T04:43:25;5.15;;;3.38;;
20695;SDS011;10507;52.754;13.040;2023-07-31T04:45:53;6.78;;;3.80;;
20695;SDS011;10507;52.754;13.040;2023-07-31T04:48:21;6.78;;;3.70;;
20695;SDS011;10507;52.754;13.040;2023-07-31T04:50:55;7.03;;;4.20;;
20695;SDS011;10507;52.754;13.040;2023-07-31T04:53:29;5.90;;;3.47;;
20695;SDS011;10507;52.754;13.040;2023-07-31T04:55:57;5.22;;;3.80;;
20695;SDS011;10507;52.754;13.040;2023-07-31T04:58:25;7.30;;;4.10;;
20695;SDS011;10507;52.754;13.040;2023-07-31T05:00:53;8.43;;;4.43;;
20695;SDS011;10507;52.754;13.040;2023-07-31T05:03:21;9.63;;;4.43;;
20695;SDS011;10507;52.754;13.040;2023-07-31T05:05:50;5.68;;;3.55;;
20695;SDS011;10507;52.754;13.040;2023-07-31T05:08:20;6.53;;;3.72;;
20695;SDS011;10507;52.754;13.040;2023-07-31T05:10:48;5.97;;;3.80;;
20695;SDS011;10507;52.754;13.040;2023-07-31T05:13:16;8.02;;;4.10;;
20695;SDS011;10507;52.754;13.040;2023-07-31T05:15:44;7.53;;;3.90;;
20695;SDS011;10507;52.754;13.040;2023-07-31T05:18:15;7.32;;;4.22;;
20695;SDS011;10507;52.754;13.040;2023-07-31T05:20:44;7.38;;;4.05;;
20695;SDS011;10507;52.754;13.040;2023-07-31T05:23:13;8.52;;;4.43;;
20695;SDS011;10507;52.754;13.040;2023-07-31T05:25:42;9.02;;;4.40;;
20695;SDS011;10507;52.754;13.040;2023-07-31T05:28:11;5.32;;;3.78;;
20695;SDS011;10507;52.754;13.040;2023-07-31T05:30:39;7.43;;;4.50;;
20695;SDS011;10507;52.754;13.040;2023-07-31T05:33:08;7.97;;;4.13;;
20695;SDS011;10507;52.754;13.040;2023-07-31T05:35:43;6.75;;;3.80;;
20695;SDS011;10507;52.754;13.040;2023-07-31T05:38:11;6.57;;;4.22;;
20695;SDS011;10507;52.754;13.040;2023-07-31T05:40:39;9.07;;;4.40;;
20695;SDS011;10507;52.754;13.040;2023-07-31T05:43:08;7.15;;;4.03;;
20695;SDS011;10507;52.754;13.040;2023-07-31T05:45:44;8.55;;;4.40;;
20695;SDS011;10507;52.754;13.040;2023-07-31T05:48:12;7.47;;;4.25;;
20695;SDS011;10507;52.754;13.040;2023-07-31T05:50:43;6.35;;;4.75;;
20695;SDS011;10507;52.754;13.040;2023-07-31T05:53:16;7.85;;;4.05;;
20695;SDS011;10507;52.754;13.040;2023-07-31T05:55:45;7.93;;;4.15;;
20695;SDS011;10507;52.754;13.040;2023-07-31T05:58:15;7.32;;;3.97;;
20695;SDS011;10507;52.754;13.040;2023-07-31T06:00:47;6.97;;;3.88;;
20695;SDS011;10507;52.754;13.040;2023-07-31T06:03:15;8.32;;;3.92;;
20695;SDS011;10507;52.754;13.040;2023-07-31T06:05:46;7.07;;;3.97;;
20695;SDS011;10507;52.754;13.040;2023-07-31T06:08:15;7.57;;;4.00;;
20695;SDS011;10507;52.754;13.040;2023-07-31T06:10:44;8.15;;;3.80;;
20695;SDS011;10507;52.754;13.040;2023-07-31T06:13:13;7.55;;;4.68;;
20695;SDS011;10507;52.754;13.040;2023-07-31T06:15:44;12.07;;;3.85;;
20695;SDS011;10507;52.754;13.040;2023-07-31T06:18:15;6.18;;;3.63;;
20695;SDS011;10507;52.754;13.040;2023-07-31T06:20:47;5.85;;;3.95;;
20695;SDS011;10507;52.754;13.040;2023-07-31T06:23:19;7.22;;;3.78;;
20695;SDS011;10507;52.754;13.040;2023-07-31T06:25:48;6.60;;;3.88;;
20695;SDS011;10507;52.754;13.040;2023-07-31T06:28:17;6.63;;;3.58;;
20695;SDS011;10507;52.754;13.040;2023-07-31T06:30:45;6.40;;;3.35;;
20695;SDS011;10507;52.754;13.040;2023-07-31T06:33:13;8.25;;;3.55;;
20695;SDS011;10507;52.754;13.040;2023-07-31T06:35:41;7.72;;;3.88;;
20695;SDS011;10507;52.754;13.040;2023-07-31T06:38:10;5.68;;;3.65;;
20695;SDS011;10507;52.754;13.040;2023-07-31T06:40:38;7.25;;;3.72;;
20695;SDS011;10507;52.754;13.040;2023-07-31T06:43:06;5.10;;;3.13;;
20695;SDS011;10507;52.754;13.040;2023-07-31T06:45:36;7.38;;;2.63;;
20695;SDS011;10507;52.754;13.040;2023-07-31T06:48:05;4.32;;;2.60;;
20695;SDS011;10507;52.754;13.040;2023-07-31T06:50:33;6.55;;;2.83;;
20695;SDS011;10507;52.754;13.040;2023-07-31T06:53:01;5.60;;;2.90;;
20695;SDS011;10507;52.754;13.040;2023-07-31T06:55:30;6.22;;;2.45;;
20695;SDS011;10507;52.754;13.040;2023-07-31T06:57:58;5.78;;;2.35;;
20695;SDS011;10507;52.754;13.040;2023-07-31T07:00:26;6.80;;;2.97;;
20695;SDS011;10507;52.754;13.040;2023-07-31T07:02:58;4.07;;;2.00;;
20695;SDS011;10507;52.754;13.040;2023-07-31T07:05:26;3.22;;;1.85;;
20695;SDS011;10507;52.754;13.040;2023-07-31T07:07:57;4.55;;;1.90;;
20695;SDS011;10507;52.754;13.040;2023-07-31T07:10:26;5.90;;;2.08;;
20695;SDS011;10507;52.754;13.040;2023-07-31T07:12:54;7.60;;;2.20;;
20695;SDS011;10507;52.754;13.040;2023-07-31T07:15:22;4.43;;;1.95;;
20695;SDS011;10507;52.754;13.040;2023-07-31T07:17:50;4.55;;;1.83;;
20695;SDS011;10507;52.754;13.040;2023-07-31T07:20:20;4.80;;;1.90;;
20695;SDS011;10507;52.754;13.040;2023-07-31T07:22:48;6.95;;;1.63;;
20695;SDS011;10507;52.754;13.040;2023-07-31T07:25:16;5.10;;;1.65;;
20695;SDS011;10507;52.754;13.040;2023-07-31T07:27:45;5.28;;;1.77;;
20695;SDS011;10507;52.754;13.040;2023-07-31T07:30:13;3.20;;;1.50;;
20695;SDS011;10507;52.754;13.040;2023-07-31T07:32:41;3.72;;;1.65;;
20695;SDS011;10507;52.754;13.040;2023-07-31T07:35:11;3.03;;;1.50;;
20695;SDS011;10507;52.754;13.040;2023-07-31T07:37:41;3.70;;;1.52;;
20695;SDS011;10507;52.754;13.040;2023-07-31T07:40:10;2.35;;;1.73;;
20695;SDS011;10507;52.754;13.040;2023-07-31T07:42:38;2.70;;;1.30;;
20695;SDS011;10507;52.754;13.040;2023-07-31T07:45:07;2.25;;;1.40;;
20695;SDS011;10507;52.754;13.040;2023-07-31T07:47:35;2.40;;;1.45;;
20695;SDS011;10507;52.754;13.040;2023-07-31T07:50:04;2.58;;;1.70;;
20695;SDS011;10507;52.754;13.040;2023-07-31T07:52:35;3.33;;;1.80;;
20695;SDS011;10507;52.754;13.040;2023-07-31T07:55:05;1.77;;;1.20;;
20695;SDS011;10507;52.754;13.040;2023-07-31T07:57:33;4.00;;;2.00;;
20695;SDS011;10507;52.754;13.040;2023-07-31T08:00:02;6.05;;;1.63;;
20695;SDS011;10507;52.754;13.040;2023-07-31T08:02:30;4.07;;;1.45;;
20695;SDS011;10507;52.754;13.040;2023-07-31T08:04:58;6.60;;;1.55;;
20695;SDS011;10507;52.754;13.040;2023-07-31T08:07:26;3.42;;;1.45;;
20695;SDS011;10507;52.754;13.040;2023-07-31T08:09:54;4.82;;;1.38;;
20695;SDS011;10507;52.754;13.040;2023-07-31T08:12:24;2.25;;;1.42;;
20695;SDS011;10507;52.754;13.040;2023-07-31T08:14:53;2.00;;;1.25;;
20695;SDS011;10507;52.754;13.040;2023-07-31T08:17:20;2.00;;;1.23;;
20695;SDS011;10507;52.754;13.040;2023-07-31T08:19:48;2.92;;;1.85;;
20695;SDS011;10507;52.754;13.040;2023-07-31T08:22:16;4.80;;;1.63;;
20695;SDS011;10507;52.754;13.040;2023-07-31T08:24:44;4.32;;;1.85;;
20695;SDS011;10507;52.754;13.040;2023-07-31T08:27:12;3.42;;;1.58;;
20695;SDS011;10507;52.754;13.040;2023-07-31T08:29:42;3.22;;;1.70;;
20695;SDS011;10507;52.754;13.040;2023-07-31T08:32:10;4.80;;;1.90;;
20695;SDS011;10507;52.754;13.040;2023-07-31T08:34:38;1.70;;;1.20;;
20695;SDS011;10507;52.754;13.040;2023-07-31T08:37:05;4.63;;;1.75;;
20695;SDS011;10507;52.754;13.040;2023-07-31T08:39:33;1.80;;;1.33;;
20695;SDS011;10507;52.754;13.040;2023-07-31T08:42:02;3.65;;;1.70;;
20695;SDS011;10507;52.754;13.040;2023-07-31T08:44:33;2.47;;;1.50;;
20695;SDS011;10507;52.754;13.040;2023-07-31T08:47:04;3.95;;;1.90;;
20695;SDS011;10507;52.754;13.040;2023-07-31T08:49:33;5.80;;;2.63;;
20695;SDS011;10507;52.754;13.040;2023-07-31T08:52:02;3.92;;;1.95;;
20695;SDS011;10507;52.754;13.040;2023-07-31T08:54:31;2.45;;;1.73;;
20695;SDS011;10507;52.754;13.040;2023-07-31T08:56:59;3.75;;;2.08;;
20695;SDS011;10507;52.754;13.040;2023-07-31T08:59:34;2.85;;;1.58;;
20695;SDS011;10507;52.754;13.040;2023-07-31T09:02:05;2.70;;;1.52;;
20695;SDS011;10507;52.754;13.040;2023-07-31T09:04:35;3.13;;;1.50;;
20695;SDS011;10507;52.754;13.040;2023-07-31T09:07:03;1.92;;;1.40;;
20695;SDS011;10507;52.754;13.040;2023-07-31T09:09:33;2.20;;;1.60;;
20695;SDS011;10507;52.754;13.040;2023-07-31T09:12:02;1.75;;;1.08;;
20695;SDS011;10507;52.754;13.040;2023-07-31T09:14:31;4.53;;;1.48;;
20695;SDS011;10507;52.754;13.040;2023-07-31T09:17:01;3.45;;;1.58;;
20695;SDS011;10507;52.754;13.040;2023-07-31T09:19:32;2.95;;;1.30;;
20695;SDS011;10507;52.754;13.040;2023-07-31T09:22:03;2.53;;;0.90;;
20695;SDS011;10507;52.754;13.040;2023-07-31T09:24:32;1.92;;;1.15;;
20695;SDS011;10507;52.754;13.040;2023-07-31T09:27:01;2.88;;;0.90;;
20695;SDS011;10507;52.754;13.040;2023-07-31T09:29:30;1.80;;;0.70;;
20695;SDS011;10507;52.754;13.040;2023-07-31T09:31:58;4.18;;;0.82;;
20695;SDS011;10507;52.754;13.040;2023-07-31T09:34:36;1.02;;;0.82;;
20695;SDS011;10507;52.754;13.040;2023-07-31T09:37:05;2.10;;;0.85;;
20695;SDS011;10507;52.754;13.040;2023-07-31T09:39:33;1.27;;;0.90;;
20695;SDS011;10507;52.754;13.040;2023-07-31T09:42:13;1.15;;;0.88;;
20695;SDS011;10507;52.754;13.040;2023-07-31T09:44:41;1.90;;;1.00;;
20695;SDS011;10507;52.754;13.040;2023-07-31T09:47:20;1.90;;;0.82;;
20695;SDS011;10507;52.754;13.040;2023-07-31T09:49:53;2.47;;;0.82;;
20695;SDS011;10507;52.754;13.040;2023-07-31T09:52:21;2.65;;;0.80;;
20695;SDS011;10507;52.754;13.040;2023-07-31T09:54:49;1.95;;;0.70;;
20695;SDS011;10507;52.754;13.040;2023-07-31T09:57:17;1.40;;;0.90;;
20695;SDS011;10507;52.754;13.040;2023-07-31T09:59:49;1.40;;;0.90;;
20695;SDS011;10507;52.754;13.040;2023-07-31T10:02:20;1.60;;;0.95;;
20695;SDS011;10507;52.754;13.040;2023-07-31T10:04:50;1.65;;;0.90;;
20695;SDS011;10507;52.754;13.040;2023-07-31T10:07:20;2.45;;;1.00;;
20695;SDS011;10507;52.754;13.040;2023-07-31T10:09:53;2.75;;;1.02;;
20695;SDS011;10507;52.754;13.040;2023-07-31T10:12:22;2.15;;;0.80;;
20695;SDS011;10507;52.754;13.040;2023-07-31T10:14:58;1.48;;;1.08;;
20695;SDS011;10507;52.754;13.040;2023-07-31T10:17:27;2.08;;;0.80;;
20695;SDS011;10507;52.754;13.040;2023-07-31T10:19:58;2.42;;;1.40;;
20695;SDS011;10507;52.754;13.040;2023-07-31T10:22:29;2.03;;;1.70;;
20695;SDS011;10507;52.754;13.040;2023-07-31T10:24:58;2.30;;;1.30;;
20695;SDS011;10507;52.754;13.040;2023-07-31T10:27:27;1.83;;;1.30;;
20695;SDS011;10507;52.754;13.040;2023-07-31T10:29:56;4.47;;;1.42;;
20695;SDS011;10507;52.754;13.040;2023-07-31T10:32:25;3.47;;;2.00;;
20695;SDS011;10507;52.754;13.040;2023-07-31T10:34:54;3.75;;;1.83;;
20695;SDS011;10507;52.754;13.040;2023-07-31T10:37:23;6.38;;;2.47;;
20695;SDS011;10507;52.754;13.040;2023-07-31T10:40:03;3.63;;;2.33;;
20695;SDS011;10507;52.754;13.040;2023-07-31T10:42:33;4.15;;;2.25;;
20695;SDS011;10507;52.754;13.040;2023-07-31T10:45:03;4.53;;;2.28;;
20695;SDS011;10507;52.754;13.040;2023-07-31T10:47:36;4.88;;;2.55;;
20695;SDS011;10507;52.754;13.040;2023-07-31T10:50:12;5.53;;;2.72;;
20695;SDS011;10507;52.754;13.040;2023-07-31T10:52:47;6.28;;;2.88;;
20695;SDS011;10507;52.754;13.040;2023-07-31T10:55:25;4.00;;;2.63;;
20695;SDS011;10507;52.754;13.040;2023-07-31T10:57:55;4.65;;;2.60;;
20695;SDS011;10507;52.754;13.040;2023-07-31T11:00:25;5.03;;;2.10;;
20695;SDS011;10507;52.754;13.040;2023-07-31T11:02:58;4.57;;;2.78;;
20695;SDS011;10507;52.754;13.040;2023-07-31T11:05:44;4.80;;;2.70;;
20695;SDS011;10507;52.754;13.040;2023-07-31T11:08:14;5.38;;;3.35;;
20695;SDS011;10507;52.754;13.040;2023-07-31T11:10:45;5.47;;;2.72;;
20695;SDS011;10507;52.754;13.040;2023-07-31T11:13:15;3.55;;;2.60;;
20695;SDS011;10507;52.754;13.040;2023-07-31T11:15:44;5.47;;;2.58;;
20695;SDS011;10507;52.754;13.040;2023-07-31T11:18:12;5.00;;;2.97;;
20695;SDS011;10507;52.754;13.040;2023-07-31T11:20:41;4.90;;;3.03;;
20695;SDS011;10507;52.754;13.040;2023-07-31T11:23:09;6.78;;;3.00;;
20695;SDS011;10507;52.754;13.040;2023-07-31T11:25:38;4.10;;;2.47;;
20695;SDS011;10507;52.754;13.040;2023-07-31T11:28:11;7.00;;;2.88;;
20695;SDS011;10507;52.754;13.040;2023-07-31T11:30:41;3.20;;;2.53;;
20695;SDS011;10507;52.754;13.040;2023-07-31T11:33:11;5.00;;;2.72;;
20695;SDS011;10507;52.754;13.040;2023-07-31T11:35:41;6.70;;;3.13;;
20695;SDS011;10507;52.754;13.040;2023-07-31T11:38:11;6.25;;;3.17;;
20695;SDS011;10507;52.754;13.040;2023-07-31T11:40:43;5.57;;;2.67;;
20695;SDS011;10507;52.754;13.040;2023-07-31T11:43:13;5.18;;;2.83;;
20695;SDS011;10507;52.754;13.040;2023-07-31T11:45:44;5.88;;;2.40;;
20695;SDS011;10507;52.754;13.040;2023-07-31T11:48:20;5.95;;;3.13;;
20695;SDS011;10507;52.754;13.040;2023-07-31T11:50:50;8.02;;;3.78;;
20695;SDS011;10507;52.754;13.040;2023-07-31T11:53:23;6.78;;;3.05;;
20695;SDS011;10507;52.754;13.040;2023-07-31T11:55:53;6.18;;;2.70;;
20695;SDS011;10507;52.754;13.040;2023-07-31T11:58:23;5.97;;;3.10;;
20695;SDS011;10507;52.754;13.040;2023-07-31T12:00:52;4.63;;;2.80;;
20695;SDS011;10507;52.754;13.040;2023-07-31T12:03:21;5.85;;;2.92;;
20695;SDS011;10507;52.754;13.040;2023-07-31T12:05:49;4.28;;;2.50;;
20695;SDS011;10507;52.754;13.040;2023-07-31T12:08:18;6.53;;;3.03;;
20695;SDS011;10507;52.754;13.040;2023-07-31T12:10:49;5.85;;;3.08;;
20695;SDS011;10507;52.754;13.040;2023-07-31T12:13:20;7.25;;;3.42;;
20695;SDS011;10507;52.754;13.040;2023-07-31T12:15:53;6.47;;;2.92;;
20695;SDS011;10507;52.754;13.040;2023-07-31T12:18:24;5.78;;;3.00;;
20695;SDS011;10507;52.754;13.040;2023-07-31T12:20:54;7.15;;;2.95;;
20695;SDS011;10507;52.754;13.040;2023-07-31T12:23:23;4.20;;;2.70;;
20695;SDS011;10507;52.754;13.040;2023-07-31T12:26:01;7.65;;;2.70;;
20695;SDS011;10507;52.754;13.040;2023-07-31T12:28:29;6.20;;;2.50;;
20695;SDS011;10507;52.754;13.040;2023-07-31T12:30:59;4.50;;;2.58;;
20695;SDS011;10507;52.754;13.040;2023-07-31T12:33:32;5.18;;;2.25;;
20695;SDS011;10507;52.754;13.040;2023-07-31T12:36:01;4.70;;;2.60;;
20695;SDS011;10507;52.754;13.040;2023-07-31T12:38:31;5.45;;;2.78;;
20695;SDS011;10507;52.754;13.040;2023-07-31T12:40:59;4.85;;;2.50;;
20695;SDS011;10507;52.754;13.040;2023-07-31T12:43:27;6.40;;;2.53;;
20695;SDS011;10507;52.754;13.040;2023-07-31T12:45:55;6.22;;;2.72;;
20695;SDS011;10507;52.754;13.040;2023-07-31T12:48:26;6.13;;;2.53;;
20695;SDS011;10507;52.754;13.040;2023-07-31T12:50:56;5.30;;;2.30;;
20695;SDS011;10507;52.754;13.040;2023-07-31T12:53:25;6.93;;;2.90;;
20695;SDS011;10507;52.754;13.040;2023-07-31T12:55:53;3.97;;;2.28;;
20695;SDS011;10507;52.754;13.040;2023-07-31T12:58:22;6.20;;;2.53;;
20695;SDS011;10507;52.754;13.040;2023-07-31T13:00:52;8.60;;;2.97;;
20695;SDS011;10507;52.754;13.040;2023-07-31T13:03:20;5.85;;;2.30;;
20695;SDS011;10507;52.754;13.040;2023-07-31T13:05:51;4.80;;;2.20;;
20695;SDS011;10507;52.754;13.040;2023-07-31T13:08:19;4.97;;;2.33;;
20695;SDS011;10507;52.754;13.040;2023-07-31T13:10:48;7.95;;;2.50;;
20695;SDS011;10507;52.754;13.040;2023-07-31T13:13:16;5.63;;;2.40;;
20695;SDS011;10507;52.754;13.040;2023-07-31T13:15:45;3.78;;;2.42;;
20695;SDS011;10507;52.754;13.040;2023-07-31T13:18:16;5.85;;;2.50;;
20695;SDS011;10507;52.754;13.040;2023-07-31T13:20:45;5.07;;;2.55;;
20695;SDS011;10507;52.754;13.040;2023-07-31T13:23:14;6.40;;;2.35;;
20695;SDS011;10507;52.754;13.040;2023-07-31T13:25:45;5.03;;;2.63;;
20695;SDS011;10507;52.754;13.040;2023-07-31T13:28:13;5.53;;;2.35;;
20695;SDS011;10507;52.754;13.040;2023-07-31T13:30:41;8.32;;;2.42;;
20695;SDS011;10507;52.754;13.040;2023-07-31T13:33:09;3.72;;;2.08;;
20695;SDS011;10507;52.754;13.040;2023-07-31T13:35:57;5.82;;;2.30;;
20695;SDS011;10507;52.754;13.040;2023-07-31T13:38:26;4.28;;;2.05;;
20695;SDS011;10507;52.754;13.040;2023-07-31T13:40:54;5.05;;;2.30;;
20695;SDS011;10507;52.754;13.040;2023-07-31T13:43:23;7.82;;;2.15;;
20695;SDS011;10507;52.754;13.040;2023-07-31T13:45:51;3.13;;;1.83;;
20695;SDS011;10507;52.754;13.040;2023-07-31T13:48:19;3.25;;;2.13;;
20695;SDS011;10507;52.754;13.040;2023-07-31T13:50:47;4.78;;;2.30;;
20695;SDS011;10507;52.754;13.040;2023-07-31T13:53:15;4.05;;;2.03;;
20695;SDS011;10507;52.754;13.040;2023-07-31T13:55:44;4.63;;;2.03;;
20695;SDS011;10507;52.754;13.040;2023-07-31T13:58:12;4.22;;;1.90;;
20695;SDS011;10507;52.754;13.040;2023-07-31T14:00:40;3.90;;;1.85;;
20695;SDS011;10507;52.754;13.040;2023-07-31T14:03:08;3.78;;;1.92;;
20695;SDS011;10507;52.754;13.040;2023-07-31T14:05:37;3.28;;;1.83;;
20695;SDS011;10507;52.754;13.040;2023-07-31T14:08:05;6.88;;;2.22;;
20695;SDS011;10507;52.754;13.040;2023-07-31T14:10:33;6.28;;;2.30;;
20695;SDS011;10507;52.754;13.040;2023-07-31T14:13:02;2.60;;;1.77;;
20695;SDS011;10507;52.754;13.040;2023-07-31T14:15:30;3.17;;;2.10;;
20695;SDS011;10507;52.754;13.040;2023-07-31T14:18:03;7.43;;;2.30;;
20695;SDS011;10507;52.754;13.040;2023-07-31T14:20:38;5.38;;;2.33;;
20695;SDS011;10507;52.754;13.040;2023-07-31T14:23:06;3.33;;;1.50;;
20695;SDS011;10507;52.754;13.040;2023-07-31T14:25:34;3.72;;;1.88;;
20695;SDS011;10507;52.754;13.040;2023-07-31T14:28:03;5.18;;;2.47;;
20695;SDS011;10507;52.754;13.040;2023-07-31T14:30:32;4.07;;;1.88;;
20695;SDS011;10507;52.754;13.040;2023-07-31T14:33:00;4.95;;;2.00;;
20695;SDS011;10507;52.754;13.040;2023-07-31T14:35:31;4.25;;;2.10;;
20695;SDS011;10507;52.754;13.040;2023-07-31T14:37:59;4.65;;;2.38;;
20695;SDS011;10507;52.754;13.040;2023-07-31T14:40:27;4.53;;;2.13;;
20695;SDS011;10507;52.754;13.040;2023-07-31T14:42:55;5.75;;;2.05;;
20695;SDS011;10507;52.754;13.040;2023-07-31T14:45:25;4.85;;;2.33;;
20695;SDS011;10507;52.754;13.040;2023-07-31T14:47:53;4.38;;;2.40;;